createdAt,value
2024-01-28T00:00:00.263Z,1018.75
2024-01-28T00:05:00.162Z,1018.64
2024-01-28T00:10:00.222Z,1018.73
2024-01-28T00:15:00.172Z,1018.58
2024-01-28T00:20:00.266Z,1018.53
2024-01-28T00:25:00.177Z,1018.51
2024-01-28T00:30:00.249Z,1018.45
2024-01-28T00:35:00.249Z,1018.41
2024-01-28T00:40:00.173Z,1018.42
2024-01-28T00:45:00.164Z,1018.39
2024-01-28T00:50:00.478Z,1018.41
2024-01-28T00:55:00.163Z,1018.38
2024-01-28T01:00:00.189Z,1018.43
2024-01-28T01:05:00.221Z,1018.36
2024-01-28T01:10:00.261Z,1018.4
2024-01-28T01:15:00.227Z,1018.45
2024-01-28T01:20:00.169Z,1018.55
2024-01-28T01:25:00.125Z,1018.52
2024-01-28T01:30:00.162Z,1018.47
2024-01-28T01:35:00.435Z,1018.49
2024-01-28T01:40:00.212Z,1018.4
2024-01-28T01:45:00.177Z,1018.45
2024-01-28T01:50:00.184Z,1018.39
2024-01-28T01:55:00.225Z,1018.4
2024-01-28T02:00:00.223Z,1018.32
2024-01-28T02:05:00.202Z,1018.36
2024-01-28T02:10:00.171Z,1018.28
2024-01-28T02:15:00.175Z,1018.36
2024-01-28T02:20:00.326Z,1018.32
2024-01-28T02:25:00.156Z,1018.36
2024-01-28T02:30:00.240Z,1018.31
2024-01-28T02:35:00.203Z,1018.3
2024-01-28T02:40:00.230Z,1018.21
2024-01-28T02:45:00.170Z,1018.15
2024-01-28T02:50:00.539Z,1018.18
2024-01-28T02:55:00.197Z,1018.1
2024-01-28T03:00:00.321Z,1018.08
2024-01-28T03:05:00.163Z,1018.09
2024-01-28T03:10:00.171Z,1018.08
2024-01-28T03:15:00.263Z,1018.11
2024-01-28T03:20:00.209Z,1018.15
2024-01-28T03:25:00.244Z,1018.08
2024-01-28T03:30:00.191Z,1018.05
2024-01-28T03:35:00.402Z,1018.03
2024-01-28T03:40:00.184Z,1018.02
2024-01-28T03:45:00.120Z,1018.1
2024-01-28T03:50:00.163Z,1018.05
2024-01-28T03:55:00.155Z,1018.1
2024-01-28T04:00:00.265Z,1018.03
2024-01-28T04:05:00.317Z,1018.01
2024-01-28T04:10:00.257Z,1017.97
2024-01-28T04:15:00.196Z,1017.92
2024-01-28T04:20:00.265Z,1017.87
2024-01-28T04:25:00.169Z,1018.01
2024-01-28T04:30:00.323Z,1017.26
2024-01-28T04:35:00.270Z,1017.2
2024-01-28T04:40:00.326Z,1017.14
2024-01-28T04:45:00.117Z,1017.13
2024-01-28T04:50:00.403Z,1017.03
2024-01-28T04:55:00.257Z,1016.93
2024-01-28T05:00:00.271Z,1016.95
2024-01-28T05:05:00.143Z,1017.02
2024-01-28T05:10:00.462Z,1017
2024-01-28T05:15:00.168Z,1016.98
2024-01-28T05:20:00.243Z,1016.95
2024-01-28T05:25:00.174Z,1017.07
2024-01-28T05:30:00.260Z,1017.07
2024-01-28T05:35:00.207Z,1017.13
2024-01-28T05:40:00.180Z,1017.11
2024-01-28T05:45:00.144Z,1017.09
2024-01-28T05:50:00.257Z,1017.16
2024-01-28T05:55:00.291Z,1017.1
2024-01-28T06:00:00.213Z,1017.22
2024-01-28T06:05:00.831Z,1017.22
2024-01-28T06:10:00.568Z,1017.17
2024-01-28T06:15:00.165Z,1017.27
2024-01-28T06:20:00.293Z,1017.32
2024-01-28T06:25:00.156Z,1017.22
2024-01-28T06:30:00.282Z,1017.23
2024-01-28T06:35:00.206Z,1017.18
2024-01-28T06:40:00.179Z,1017.18
2024-01-28T06:45:00.180Z,1017.28
2024-01-28T06:50:00.319Z,1017.18
2024-01-28T06:55:00.298Z,1017.18
2024-01-28T07:00:00.277Z,1017.31
2024-01-28T07:05:00.104Z,1017.19
2024-01-28T07:10:00.382Z,1017.18
2024-01-28T07:15:00.160Z,1017.22
2024-01-28T07:20:00.194Z,1017.27
2024-01-28T07:25:00.157Z,1017.34
2024-01-28T07:30:00.460Z,1017.28
2024-01-28T07:35:00.279Z,1017.25
2024-01-28T07:40:00.317Z,1017.16
2024-01-28T07:45:00.145Z,1017.07
2024-01-28T07:50:00.319Z,1017.06
2024-01-28T07:55:00.166Z,1017.05
2024-01-28T08:00:00.247Z,1017.09
2024-01-28T08:05:00.285Z,1017
2024-01-28T08:10:00.252Z,1017.03
2024-01-28T08:15:00.189Z,1017.06
2024-01-28T08:20:00.193Z,1016.91
2024-01-28T08:25:00.225Z,1016.95
2024-01-28T08:30:00.182Z,1016.87
2024-01-28T08:35:00.228Z,1016.96
2024-01-28T08:40:00.264Z,1016.91
2024-01-28T08:45:00.139Z,1016.85
2024-01-28T08:50:00.586Z,1016.83
2024-01-28T08:55:00.278Z,1016.81
2024-01-28T09:00:00.233Z,1016.94
2024-01-28T09:05:00.191Z,1016.91
2024-01-28T09:10:00.335Z,1017.01
2024-01-28T09:15:00.235Z,1017.07
2024-01-28T09:20:00.331Z,1017.16
2024-01-28T09:25:00.198Z,1017.23
2024-01-28T09:30:00.253Z,1017.19
2024-01-28T09:35:00.202Z,1017.16
2024-01-28T09:40:00.247Z,1017.13
2024-01-28T09:45:00.115Z,1017.04
2024-01-28T09:50:00.638Z,1017.09
2024-01-28T09:55:00.255Z,1016.9
2024-01-28T10:00:00.263Z,1017.03
2024-01-28T10:05:00.177Z,1016.96
2024-01-28T10:10:00.225Z,1017.07
2024-01-28T10:15:00.176Z,1016.94
2024-01-28T10:20:00.251Z,1016.81
2024-01-28T10:25:00.229Z,1016.93
2024-01-28T10:30:00.172Z,1016.91
2024-01-28T10:35:00.233Z,1016.82
2024-01-28T10:40:00.345Z,1016.79
2024-01-28T10:45:00.949Z,1016.77
2024-01-28T10:50:00.256Z,1016.62
2024-01-28T10:55:00.227Z,1016.51
2024-01-28T11:00:00.350Z,1016.48
2024-01-28T11:05:00.126Z,1016.43
2024-01-28T11:10:00.232Z,1016.34
2024-01-28T11:15:00.215Z,1016.32
2024-01-28T11:20:00.182Z,1016.23
2024-01-28T11:25:00.167Z,1016.12
2024-01-28T11:30:00.194Z,1016.18
2024-01-28T11:35:00.241Z,1016.24
2024-01-28T11:40:00.263Z,1016.08
2024-01-28T11:45:00.126Z,1015.99
2024-01-28T11:50:00.203Z,1015.89
2024-01-28T11:55:00.244Z,1015.87
2024-01-28T12:00:00.223Z,1015.82
2024-01-28T12:05:00.168Z,1015.74
2024-01-28T12:10:00.331Z,1015.73
2024-01-28T12:15:00.179Z,1015.57
2024-01-28T12:20:00.408Z,1015.57
2024-01-28T12:25:00.216Z,1015.53
2024-01-28T12:30:00.206Z,1015.46
2024-01-28T12:35:00.194Z,1015.59
2024-01-28T12:40:00.251Z,1015.47
2024-01-28T12:45:00.164Z,1015.42
2024-01-28T12:50:00.273Z,1015.45
2024-01-28T12:55:00.171Z,1015.36
2024-01-28T13:00:00.377Z,1015.32
2024-01-28T13:05:00.215Z,1015.32
2024-01-28T13:10:00.270Z,1015.32
2024-01-28T13:15:00.130Z,1015.3
2024-01-28T13:20:00.480Z,1015.21
2024-01-28T13:25:00.259Z,1015.08
2024-01-28T13:30:00.233Z,1015.11
2024-01-28T13:35:00.280Z,1014.94
2024-01-28T13:40:00.187Z,1014.85
2024-01-28T13:45:00.152Z,1014.83
2024-01-28T13:50:00.172Z,1014.94
2024-01-28T13:55:00.152Z,1014.92
2024-01-28T14:00:00.257Z,1014.89
2024-01-28T14:05:00.126Z,1014.88
2024-01-28T14:10:00.210Z,1014.85
2024-01-28T14:15:00.240Z,1014.82
2024-01-28T14:20:00.245Z,1014.88
2024-01-28T14:25:00.298Z,1014.8
2024-01-28T14:30:00.280Z,1014.8
2024-01-28T14:35:00.346Z,1014.76
2024-01-28T14:40:00.212Z,1014.62
2024-01-28T14:45:00.165Z,1014.57
2024-01-28T14:50:00.237Z,1014.6
2024-01-28T14:55:00.263Z,1014.57
2024-01-28T15:00:00.242Z,1014.5
2024-01-28T15:05:00.194Z,1014.52
2024-01-28T15:10:00.374Z,1014.44
2024-01-28T15:15:00.169Z,1014.34
2024-01-28T15:20:00.488Z,1014.44
2024-01-28T15:25:01.147Z,1014.42
2024-01-28T15:30:00.188Z,1014.47
2024-01-28T15:35:00.306Z,1014.56
2024-01-28T15:40:00.278Z,1014.41
2024-01-28T15:45:00.120Z,1014.34
2024-01-28T15:50:00.360Z,1014.32
2024-01-28T15:55:00.185Z,1014.34
2024-01-28T16:00:04.277Z,1014.32
2024-01-28T16:05:00.272Z,1014.29
2024-01-28T16:10:00.259Z,1014.28
2024-01-28T16:15:00.521Z,1014.23
2024-01-28T16:20:00.312Z,1014.37
2024-01-28T16:25:00.220Z,1014.39
2024-01-28T16:30:00.243Z,1014.41
2024-01-28T16:35:01.088Z,1014.3
2024-01-28T16:40:00.250Z,1014.34
2024-01-28T16:45:00.210Z,1014.31
2024-01-28T16:50:00.328Z,1014.43
2024-01-28T16:55:00.349Z,1014.37
2024-01-28T17:00:00.231Z,1014.37
2024-01-28T17:05:01.708Z,1014.36
2024-01-28T17:10:00.433Z,1014.32
2024-01-28T17:15:00.179Z,1014.31
2024-01-28T17:20:00.134Z,1014.34
2024-01-28T17:25:00.348Z,1014.29
2024-01-28T17:30:00.343Z,1014.2
2024-01-28T17:35:00.415Z,1014.21
2024-01-28T17:40:00.357Z,1014.3
2024-01-28T17:45:00.128Z,1014.26
2024-01-28T17:50:00.359Z,1014.28
2024-01-28T17:55:00.212Z,1014.24
2024-01-28T18:00:00.320Z,1014.22
2024-01-28T18:05:00.128Z,1014.33
2024-01-28T18:10:00.271Z,1014.31
2024-01-28T18:15:00.166Z,1014.35
2024-01-28T18:20:00.219Z,1014.26
2024-01-28T18:25:00.205Z,1014.28
2024-01-28T18:30:00.205Z,1014.27
2024-01-28T18:35:00.149Z,1014.21
2024-01-28T18:40:00.183Z,1014.14
2024-01-28T18:45:00.126Z,1014.14
2024-01-28T18:50:00.307Z,1014.22
2024-01-28T18:55:00.326Z,1014.23
2024-01-28T19:00:00.283Z,1014.31
2024-01-28T19:05:00.313Z,1014.28
2024-01-28T19:10:00.379Z,1014.19
2024-01-28T19:15:00.143Z,1014.17
2024-01-28T19:20:00.411Z,1014.12
2024-01-28T19:25:00.172Z,1014.05
2024-01-28T19:30:00.330Z,1013.99
2024-01-28T19:35:00.322Z,1013.98
2024-01-28T19:40:00.229Z,1013.96
2024-01-28T19:45:00.194Z,1014.01
2024-01-28T19:50:00.478Z,1014
2024-01-28T19:55:00.240Z,1013.88
2024-01-28T20:00:00.223Z,1013.92
2024-01-28T20:05:00.338Z,1013.84
2024-01-28T20:10:00.215Z,1014.01
2024-01-28T20:15:00.206Z,1014.06
2024-01-28T20:20:00.525Z,1013.9
2024-01-28T20:25:00.241Z,1013.82
2024-01-28T20:30:00.284Z,1013.87
2024-01-28T20:35:00.253Z,1013.82
2024-01-28T20:40:00.415Z,1013.86
2024-01-28T20:45:00.145Z,1013.87
2024-01-28T20:50:00.286Z,1013.78
2024-01-28T20:55:00.238Z,1013.66
2024-01-28T21:00:00.217Z,1013.58
2024-01-28T21:05:00.187Z,1013.64
2024-01-28T21:10:00.278Z,1013.62
2024-01-28T21:15:00.195Z,1013.61
2024-01-28T21:20:00.341Z,1013.67
2024-01-28T21:25:00.264Z,1013.71
2024-01-28T21:30:00.269Z,1014.24
2024-01-28T21:35:00.284Z,1014.14
2024-01-28T21:40:00.325Z,1014.05
2024-01-28T21:45:00.197Z,1014.06
2024-01-28T21:50:00.331Z,1014.03
2024-01-28T21:55:00.273Z,1013.95
2024-01-28T22:00:00.230Z,1013.91
2024-01-28T22:05:00.140Z,1014.09
2024-01-28T22:10:00.298Z,1013.98
2024-01-28T22:15:00.441Z,1014.03
2024-01-28T22:20:00.261Z,1013.99
2024-01-28T22:25:00.201Z,1013.99
2024-01-28T22:30:00.239Z,1014.09
2024-01-28T22:35:00.214Z,1013.98
2024-01-28T22:40:00.361Z,1014
2024-01-28T22:45:00.232Z,1013.93
2024-01-28T22:50:00.269Z,1013.91
2024-01-28T22:55:00.359Z,1013.83
2024-01-28T23:00:00.279Z,1013.82
2024-01-28T23:05:00.302Z,1013.92
2024-01-28T23:10:00.342Z,1013.93
2024-01-28T23:15:03.913Z,1013.86
2024-01-28T23:20:00.332Z,1013.83
2024-01-28T23:25:00.287Z,1013.82
2024-01-28T23:30:00.310Z,1013.88
2024-01-28T23:35:00.437Z,1013.7
2024-01-28T23:40:00.353Z,1013.83
2024-01-28T23:45:00.177Z,1013.86
2024-01-28T23:50:00.295Z,1013.83
2024-01-28T23:55:00.236Z,1013.82
